Time;durP1;ratioP1;P1;durP2;ratioP2;P2;SDS_P1;SDS_P2;PMS_P1;PMS_P2;Temp;Humidity;BMP_temperature;BMP_pressure;BME280_temperature;BME280_humidity;BME280_pressure;Samples;Min_cycle;Max_cycle;Signal;HPM_P1;HPM_P2
2023/03/10 00:01:43;;;;;;;18.73;11.75;;;;;;;2.33;94.19;99396.34;20738760;28;20125;-58
2023/03/10 00:12:05;;;;;;;18.60;11.83;;;;;;;2.33;93.69;99388.69;20742845;28;20065;-58
2023/03/10 00:22:26;;;;;;;;;;;;;;;2.35;93.94;99361.44;20729584;28;20061;-58
2023/03/10 00:32:49;;;;;;;18.17;11.37;;;;;;;2.36;94.14;99350.38;20742257;28;19936;-58
2023/03/10 00:43:11;;;;;;;17.98;11.00;;;;;;;2.39;94.03;99322.22;20746062;28;20052;-59
2023/03/10 00:53:34;;;;;;;18.23;11.30;;;;;;;2.39;93.37;99294.16;20735686;28;20046;-58
2023/03/10 01:03:58;;;;;;;17.20;10.73;;;;;;;2.39;93.43;99266.09;20749920;28;20123;-58
2023/03/10 01:14:20;;;;;;;17.27;10.15;;;;;;;2.39;93.51;99249.91;20732502;28;20069;-58
2023/03/10 01:24:41;;;;;;;15.07;9.60;;;;;;;2.37;93.95;99237.19;20734893;28;20106;-59
2023/03/10 01:35:04;;;;;;;14.87;9.23;;;;;;;2.39;93.84;99209.94;20725318;28;20078;-57
2023/03/10 01:45:26;;;;;;;13.45;9.02;;;;;;;2.34;93.61;99191.34;20734532;28;20050;-57
2023/03/10 01:55:54;;;;;;;16.20;9.40;;;;;;;2.33;94.28;99168.41;20722513;28;20557;-58
2023/03/10 02:06:18;;;;;;;15.18;9.35;;;;;;;2.32;94.12;99157.38;20723187;28;20443;-58
2023/03/10 02:16:40;;;;;;;17.63;9.50;;;;;;;2.29;94.18;99136.22;20721516;28;20050;-57
2023/03/10 02:27:25;;;;;;;14.68;9.68;;;;;;;2.18;94.14;99116.03;20734341;28;20046;-58
2023/03/10 02:37:49;;;;;;;18.55;10.45;;;;;;;2.12;94.83;99098.34;20718098;28;20078;-58
2023/03/10 02:48:15;;;;;;;18.65;11.25;;;;;;;2.10;94.76;99094.16;20738696;28;20046;-58
2023/03/10 02:58:36;;;;;;;18.05;10.73;;;;;;;2.09;94.85;99083.09;20725494;28;20106;-60
2023/03/10 03:08:58;;;;;;;15.87;10.23;;;;;;;2.03;94.98;99078.97;20754184;28;20057;-58
2023/03/10 03:19:19;;;;;;;16.20;11.00;;;;;;;2.02;94.91;99063.72;20744783;28;20045;-60
2023/03/10 03:29:41;;;;;;;16.93;10.63;;;;;;;1.99;95.55;99074.00;20732485;28;20046;-61
2023/03/10 03:40:11;;;;;;;16.40;9.90;;;;;;;1.97;95.53;99063.00;20757598;28;20598;-61
2023/03/10 03:50:33;;;;;;;16.15;9.70;;;;;;;1.94;96.05;99063.09;20747401;28;20081;-61
2023/03/10 04:00:54;;;;;;;16.33;10.00;;;;;;;1.91;95.58;99074.19;20747031;28;20050;-61
2023/03/10 04:11:16;;;;;;;16.03;10.17;;;;;;;1.89;95.60;99077.63;20748082;28;20038;-60
2023/03/10 04:21:37;;;;;;;17.07;9.90;;;;;;;1.91;96.41;99088.63;20749083;28;20462;-60
2023/03/10 04:31:59;;;;;;;17.27;11.60;;;;;;;1.89;96.30;99095.47;20718500;28;20050;-61
2023/03/10 04:42:26;;;;;;;24.55;14.45;;;;;;;1.89;96.32;99093.78;20723001;28;20045;-61
2023/03/10 04:52:49;;;;;;;26.73;15.90;;;;;;;1.88;96.24;99096.38;20745230;28;20042;-61
2023/03/10 05:03:10;;;;;;;;;;;;;;;1.90;96.69;99098.00;20737006;28;20156;-61
2023/03/10 05:13:32;;;;;;;31.30;18.20;;;;;;;1.87;97.01;99081.94;20746017;28;19951;-61
2023/03/10 05:23:53;;;;;;;29.03;17.07;;;;;;;1.86;96.97;99082.81;20739945;28;20118;-61
2023/03/10 05:34:15;;;;;;;26.30;15.53;;;;;;;1.87;96.74;99081.94;20742038;28;20051;-61
2023/03/10 05:44:37;;;;;;;26.07;14.87;;;;;;;1.86;96.48;99085.38;20739313;28;20103;-61
2023/03/10 05:54:59;;;;;;;27.85;15.38;;;;;;;1.89;96.52;99088.69;20729656;28;20057;-61
2023/03/10 06:05:20;;;;;;;27.13;14.93;;;;;;;1.91;96.36;99089.47;20733727;28;20037;-60
2023/03/10 06:15:42;;;;;;;22.30;13.63;;;;;;;1.90;96.33;99090.34;20728875;28;20042;-61
2023/03/10 06:26:10;;;;;;;23.27;13.40;;;;;;;1.91;96.59;99093.75;20708191;28;20165;-61
2023/03/10 06:36:32;;;;;;;24.90;12.98;;;;;;;1.90;96.40;99103.09;20721546;28;20050;-59
2023/03/10 06:46:54;;;;;;;20.90;12.67;;;;;;;1.95;96.24;99125.94;20737706;28;20493;-59
2023/03/10 06:57:15;;;;;;;14.30;9.20;;;;;;;1.96;96.54;99117.41;20728166;28;20126;-59
2023/03/10 07:07:40;;;;;;;22.55;13.35;;;;;;;1.95;96.44;99131.91;20740637;28;20129;-60
2023/03/10 07:18:02;;;;;;;27.63;13.17;;;;;;;1.91;96.88;99144.72;20750581;28;20053;-59
2023/03/10 07:28:24;;;;;;;28.03;14.47;;;;;;;1.93;96.76;99150.63;20733510;28;20473;-60
2023/03/10 07:38:46;;;;;;;25.30;14.48;;;;;;;1.87;97.09;99159.25;20735077;28;20045;-60
2023/03/10 07:49:08;;;;;;;23.80;13.40;;;;;;;1.87;96.85;99156.72;20750756;28;20161;-61
2023/03/10 07:59:30;;;;;;;24.13;13.57;;;;;;;1.82;96.65;99145.78;20746163;28;20057;-61
2023/03/10 08:09:52;;;;;;;22.33;13.47;;;;;;;1.82;97.02;99175.53;20739104;28;20545;-60
2023/03/10 08:20:13;;;;;;;21.58;12.73;;;;;;;1.87;96.93;99189.00;20733592;28;20095;-60
2023/03/10 08:30:37;;;;;;;22.77;13.15;;;;;;;1.93;97.56;99194.84;20719408;28;20527;-60
2023/03/10 08:41:25;;;;;;;21.55;13.05;;;;;;;2.00;96.59;99201.47;20725353;28;20074;-59
2023/03/10 08:51:48;;;;;;;18.50;12.30;;;;;;;2.09;96.10;99194.50;20726065;28;20094;-58
2023/03/10 09:02:13;;;;;;;19.85;12.38;;;;;;;2.16;95.73;99166.28;20730526;28;20128;-59
2023/03/10 09:12:35;;;;;;;;;;;;;;;2.24;95.40;99178.81;20738485;28;20136;-59
2023/03/10 09:22:59;;;;;;;;;;;;;;;2.28;95.22;99218.72;20747649;28;20005;-60
2023/03/10 09:33:21;;;;;;;;;;;;;;;2.31;95.30;99223.75;20729471;28;19921;-58
2023/03/10 09:43:49;;;;;;;;;;;;;;;2.27;95.92;99235.72;20728408;28;20360;-59
2023/03/10 09:54:33;;;;;;;;;;;;;;;2.34;95.34;99208.38;20747517;28;20496;-58
2023/03/10 10:04:57;;;;;;;;;;;;;;;2.42;95.89;99209.84;20737470;28;19951;-58
2023/03/10 10:15:21;;;;;;;;;;;;;;;2.50;95.49;99223.28;20754935;28;19921;-58
2023/03/10 10:25:42;;;;;;;;;;;;;;;2.52;95.18;99249.63;20736200;28;20353;-60
2023/03/10 10:36:04;;;;;;;;;;;;;;;2.58;94.49;99239.25;20749710;28;19966;-60
2023/03/10 10:46:28;;;;;;;;;;;;;;;2.57;94.63;99255.44;20747899;28;19935;-61
2023/03/10 10:57:00;;;;;;;;;;;;;;;2.57;94.67;99264.81;20751745;28;19930;-61
2023/03/10 11:07:26;;;;;;;;;;;;;;;2.60;94.51;99260.47;20726522;28;19966;-59
2023/03/10 11:17:56;;;;;;;;;;;;;;;2.61;94.59;99236.63;20746497;28;19928;-58
2023/03/10 11:28:30;;;;;;;;;;;;;;;2.70;94.34;99233.84;20740850;28;19921;-58
2023/03/10 11:38:54;;;;;;;;;;;;;;;2.73;94.45;99231.22;20745974;28;19929;-57
2023/03/10 11:49:16;;;;;;;;;;;;;;;2.70;94.99;99230.47;20736822;28;19929;-56
2023/03/10 11:59:43;;;;;;;;;;;;;;;2.70;94.23;99200.66;20746057;28;19982;-56
2023/03/10 12:10:10;;;;;;;;;;;;;;;2.72;94.79;99211.69;20733552;28;19986;-57
2023/03/10 12:20:33;;;;;;;;;;;;;;;2.74;94.57;99214.19;20757466;28;19921;-55
2023/03/10 12:30:58;;;;;;;;;;;;;;;2.75;94.35;99186.06;20734796;28;19921;-55
2023/03/10 12:41:25;;;;;;;;;;;;;;;2.79;95.10;99169.78;20750785;28;20369;-55
2023/03/10 12:51:50;;;;;;;;;;;;;;;2.90;94.38;99172.06;20747897;28;19933;-57
2023/03/10 13:02:34;;;;;;;;;;;;;;;2.91;94.39;99182.25;20734706;28;19974;-56
2023/03/10 13:12:59;;;;;;;;;;;;;;;2.89;93.97;99181.44;20730638;28;19932;-57
2023/03/10 13:23:21;;;;;;;;;;;;;;;2.88;94.59;99176.38;20728144;28;19947;-56
2023/03/10 13:33:43;;;;;;;;;;;;;;;2.77;94.19;99199.63;20711812;28;19924;-57
2023/03/10 13:44:24;;;;;;;;;;;;;;;2.75;94.71;99211.59;20715140;28;19921;-55
2023/03/10 13:54:46;;;;;;;;;;;;;;;2.73;94.44;99231.22;20756672;28;19982;-57
2023/03/10 14:05:27;;;;;;;;;;;;;;;2.69;94.79;99252.59;20726773;28;19922;-55
2023/03/10 14:15:53;;;;;;;;;;;;;;;2.70;95.21;99269.59;20695320;28;19989;-57
2023/03/10 14:26:15;;;;;;;;;;;;;;;2.65;95.67;99260.38;20743462;28;20035;-58
2023/03/10 14:36:37;;;;;;;;;;;;;;;2.54;95.55;99260.63;20732439;28;19948;-56
2023/03/10 14:46:59;;;;;;;;;;;;;;;2.43;95.75;99265.13;20714999;28;19990;-57
2023/03/10 14:57:21;;;;;;;;;;;;;;;2.40;95.79;99264.38;20718670;28;19925;-58
2023/03/10 15:07:43;;;;;;;;;;;;;;;2.34;96.60;99256.84;20714835;28;19986;-58
2023/03/10 15:18:05;;;;;;;;;;;;;;;2.29;96.55;99241.63;20744605;28;19921;-59
2023/03/10 15:28:26;;;;;;;;;;;;;;;2.24;96.56;99251.09;20743623;28;19942;-60
2023/03/10 15:38:47;;;;;;;;;;;;;;;2.26;96.68;99241.72;20750403;28;19944;-60
2023/03/10 15:49:09;;;;;;;;;;;;;;;2.21;97.80;99246.09;20733476;28;20052;-60
2023/03/10 15:59:33;;;;;;;;;;;;;;;2.20;97.38;99254.59;20735614;28;19925;-59
2023/03/10 16:09:54;;;;;;;;;;;;;;;2.19;97.32;99263.13;20734024;28;19929;-61
2023/03/10 16:20:17;;;;;;;;;;;;;;;2.13;97.99;99278.56;20733122;28;20477;-58
2023/03/10 16:30:39;;;;;;;;;;;;;;;2.15;97.52;99309.97;20723570;28;19932;-60
2023/03/10 16:41:01;;;;;;;;;;;;;;;2.07;97.56;99311.84;20732485;28;19940;-57
2023/03/10 16:51:22;;;;;;;;;;;;;;;1.95;98.39;99315.50;20733705;28;19950;-58
2023/03/10 17:01:44;;;;;;;;;;;;;;;1.92;98.36;99340.22;20758055;28;20449;-58
2023/03/10 17:12:05;;;;;;;;;;;;;;;1.87;97.86;99368.34;20735477;28;19922;-59
2023/03/10 17:22:27;;;;;;;;;;;;;;;1.86;97.61;99387.06;20723317;28;19944;-59
2023/03/10 17:32:48;;;;;;;;;;;;;;;1.81;98.14;99429.63;20729353;28;19993;-61
2023/03/10 17:43:10;;;;;;;;;;;;;;;1.82;97.83;99468.72;20742009;28;19960;-60
2023/03/10 17:53:52;;;;;;;;;;;;;;;1.80;97.82;99501.06;20731986;28;19922;-61
2023/03/10 18:04:15;;;;;;;;;;;;;;;1.79;97.64;99527.44;21617284;22;21501;-62
2023/03/10 18:25:07;;;;;;;;;;;;;;;1.77;96.90;99585.25;20674197;23;19922;-60
2023/03/10 18:35:29;;;;;;;;;;;;;;;1.73;97.62;99621.84;20460307;23;20008;-63
2023/03/10 18:45:50;;;;;;;;;;;;;;;1.68;98.04;99656.75;20505660;28;20361;-63
2023/03/10 18:56:12;;;;;;;;;;;;;;;1.67;97.62;99690.72;20526052;28;19941;-62
2023/03/10 19:06:33;;;;;;;;;;;;;;;1.71;96.81;99730.63;20538115;28;19958;-63
2023/03/10 19:16:55;;;;;;;;;;;;;;;1.72;98.14;99760.38;20514301;28;19973;-63
2023/03/10 19:27:16;;;;;;;;;;;;;;;1.74;97.82;99789.25;20504034;28;19925;-62
2023/03/10 19:37:41;;;;;;;;;;;;;;;1.74;97.90;99814.75;20509637;28;20565;-63
2023/03/10 19:48:03;;;;;;;;;;;;;;;1.69;98.12;99806.28;20508926;28;19942;-64
2023/03/10 19:58:25;;;;;;;;;;;;;;;1.70;98.27;99833.47;20514521;28;19930;-65
2023/03/10 20:08:46;;;;;;;;;;;;;;;1.71;97.47;99870.84;20525712;28;19926;-64
2023/03/10 20:19:07;;;;;;;;;;;;;;;1.74;97.73;99901.44;20512336;28;19981;-63
2023/03/10 20:29:29;;;;;;;;;;;;;;;1.75;97.45;99913.28;20513475;28;19961;-63
2023/03/10 20:39:50;;;;;;;;;;;;;;;1.77;97.68;99944.72;20510636;28;19970;-63
2023/03/10 20:50:12;;;;;;;;;;;;;;;1.81;97.55;99969.34;20506974;28;20032;-63
2023/03/10 21:00:33;;;;;;;;;;;;;;;1.83;97.73;100008.44;20506870;28;20454;-62
2023/03/10 21:10:55;;;;;;;;;;;;;;;1.80;97.48;100023.72;20505730;28;19978;-63
2023/03/10 21:21:16;;;;;;;;;;;;;;;1.79;96.93;100048.41;20503480;28;19981;-62
2023/03/10 21:31:37;;;;;;;;;;;;;;;1.79;97.31;100056.06;20505712;28;20344;-62
2023/03/10 21:41:59;;;;;;;;;;;;;;;1.74;96.57;100074.78;20494045;28;20353;-62
2023/03/10 21:52:20;;;;;;;;;;;;;;;1.78;96.20;100100.25;20499704;28;20073;-62
2023/03/10 22:02:42;;;;;;;;;;;;;;;1.78;95.98;100132.53;20489750;28;20416;-62
2023/03/10 22:13:03;;;;;;;;;;;;;;;1.83;96.01;100146.13;20498164;28;19965;-62
2023/03/10 22:23:24;;;;;;;;;;;;;;;1.83;95.56;100166.53;20514201;28;19934;-62
2023/03/10 22:33:46;;;;;;;;;;;;;;;1.85;95.64;100177.56;20523475;28;19976;-62
2023/03/10 22:44:07;;;;;;;;;;;;;;;1.85;95.45;100203.06;20541664;28;20065;-61
2023/03/10 22:54:29;;;;;;;;;;;;;;;1.87;95.77;100216.63;20518823;28;19969;-62
2023/03/10 23:04:50;;;;;;;;;;;;;;;1.89;95.53;100232.78;20547559;28;20032;-61
2023/03/10 23:15:16;;;;;;;;;;;;;;;1.86;95.13;100258.31;20548949;28;19977;-62
2023/03/10 23:25:47;;;;;;;;;;;;;;;1.86;94.65;100273.59;20528113;28;20074;-61
2023/03/10 23:36:10;;;;;;;;;;;;;;;1.78;94.96;100270.22;20517800;28;19922;-62
2023/03/10 23:46:32;;;;;;;;;;;;;;;1.79;95.36;100302.53;20522931;28;19948;-62
2023/03/10 23:56:53;;;;;;;;;;;;;;;1.70;95.39;100333.16;20510954;28;19949;-62
